createdAt,value
2018-05-01T00:01:33.731Z,22.30
2018-05-01T00:04:01.543Z,22.20
2018-05-01T00:06:29.408Z,22.30
2018-05-01T00:08:57.169Z,22.20
2018-05-01T00:11:24.961Z,22.20
2018-05-01T00:13:52.793Z,22.20
2018-05-01T00:16:21.366Z,22.30
2018-05-01T00:18:49.920Z,22.20
2018-05-01T00:21:17.708Z,22.20
2018-05-01T00:23:46.314Z,22.20
2018-05-01T00:26:14.133Z,22.10
2018-05-01T00:28:41.905Z,22.20
2018-05-01T00:31:09.794Z,22.20
2018-05-01T00:33:38.349Z,22.10
2018-05-01T00:36:06.187Z,22.10
2018-05-01T00:38:34.084Z,21.90
2018-05-01T00:41:01.984Z,21.70
2018-05-01T00:43:29.781Z,21.40
2018-05-01T00:45:57.621Z,21.50
2018-05-01T00:48:25.398Z,21.50
2018-05-01T00:50:53.229Z,21.60
2018-05-01T00:53:21.785Z,21.70
2018-05-01T00:55:49.633Z,21.70
2018-05-01T00:58:17.486Z,21.70
2018-05-01T01:00:45.290Z,21.70
2018-05-01T01:03:13.091Z,21.70
2018-05-01T01:05:40.870Z,21.70
2018-05-01T01:08:08.716Z,21.60
2018-05-01T01:10:37.348Z,21.60
2018-05-01T01:13:05.210Z,21.60
2018-05-01T01:15:33.011Z,21.60
2018-05-01T01:18:00.865Z,21.60
2018-05-01T01:20:28.641Z,21.50
2018-05-01T01:22:56.435Z,21.50
2018-05-01T01:25:24.228Z,21.50
2018-05-01T01:27:52.018Z,21.50
2018-05-01T01:30:19.902Z,21.40
2018-05-01T01:32:53.666Z,21.50
2018-05-01T01:35:21.043Z,21.50
2018-05-01T01:37:48.341Z,21.30
2018-05-01T01:40:15.646Z,21.20
2018-05-01T01:42:42.944Z,20.80
2018-05-01T01:45:10.270Z,20.90
2018-05-01T01:47:38.366Z,21.00
2018-05-01T01:50:06.428Z,20.80
2018-05-01T01:52:34.584Z,20.90
2018-05-01T01:55:01.858Z,20.90
2018-05-01T01:57:29.280Z,21.10
2018-05-01T01:59:56.539Z,21.10
2018-05-01T02:02:23.861Z,21.20
2018-05-01T02:04:51.927Z,21.20
2018-05-01T02:07:19.207Z,21.20
2018-05-01T02:09:46.480Z,21.20
2018-05-01T02:12:14.522Z,21.10
2018-05-01T02:14:41.881Z,21.10
2018-05-01T02:17:09.238Z,21.20
2018-05-01T02:19:36.691Z,21.10
2018-05-01T02:22:04.041Z,21.20
2018-05-01T02:24:31.401Z,21.10
2018-05-01T02:26:58.712Z,21.10
2018-05-01T02:29:26.003Z,21.00
2018-05-01T02:31:53.370Z,21.00
2018-05-01T02:34:20.816Z,20.80
2018-05-01T02:36:48.100Z,20.00
2018-05-01T02:39:15.434Z,19.60
2018-05-01T02:41:42.737Z,19.70
2018-05-01T02:44:10.053Z,19.60
2018-05-01T02:46:38.203Z,19.20
2018-05-01T02:49:05.555Z,19.20
2018-05-01T02:51:33.016Z,18.70
2018-05-01T02:54:00.366Z,18.80
2018-05-01T02:56:27.651Z,18.40
2018-05-01T02:58:55.735Z,19.00
2018-05-01T03:01:23.007Z,19.00
2018-05-01T03:03:50.295Z,19.40
2018-05-01T03:06:17.564Z,19.30
2018-05-01T03:08:45.591Z,19.20
2018-05-01T03:11:12.905Z,19.20
2018-05-01T03:13:41.039Z,18.80
2018-05-01T03:16:08.395Z,18.70
2018-05-01T03:18:35.748Z,18.60
2018-05-01T03:21:03.101Z,18.70
2018-05-01T03:23:30.455Z,18.60
2018-05-01T03:25:57.813Z,18.60
2018-05-01T03:28:25.163Z,18.90
2018-05-01T03:30:52.520Z,18.60
2018-05-01T03:33:19.871Z,18.70
2018-05-01T03:35:47.436Z,18.60
2018-05-01T03:38:14.786Z,18.60
2018-05-01T03:40:42.246Z,18.70
2018-05-01T03:43:09.595Z,18.90
2018-05-01T03:45:36.918Z,19.20
2018-05-01T03:48:04.259Z,19.20
2018-05-01T03:50:31.657Z,19.20
2018-05-01T03:52:58.982Z,18.90
2018-05-01T03:55:26.342Z,18.90
2018-05-01T03:57:53.641Z,18.70
2018-05-01T04:00:21.037Z,18.70
2018-05-01T04:02:48.325Z,18.80
2018-05-01T04:05:15.666Z,18.80
2018-05-01T04:07:42.996Z,18.90
2018-05-01T04:10:10.353Z,18.80
2018-05-01T04:12:37.712Z,18.70
2018-05-01T04:15:05.103Z,18.80
2018-05-01T04:17:32.453Z,18.80
2018-05-01T04:19:59.912Z,18.80
2018-05-01T04:22:27.232Z,18.80
2018-05-01T04:24:54.589Z,19.10
2018-05-01T04:27:21.917Z,19.40
2018-05-01T04:29:49.299Z,19.20
2018-05-01T04:32:16.765Z,19.40
2018-05-01T04:34:44.217Z,19.20
2018-05-01T04:37:11.668Z,19.10
2018-05-01T04:39:39.026Z,19.20
2018-05-01T04:42:06.383Z,19.10
2018-05-01T04:44:33.730Z,18.50
2018-05-01T04:47:01.088Z,18.30
2018-05-01T04:49:28.441Z,18.10
2018-05-01T04:51:55.897Z,18.10
2018-05-01T04:54:23.251Z,17.90
2018-05-01T04:56:50.708Z,17.80
2018-05-01T04:59:18.060Z,17.80
2018-05-01T05:01:45.417Z,18.00
2018-05-01T05:04:12.870Z,18.10
2018-05-01T05:06:40.329Z,18.20
2018-05-01T05:09:07.785Z,18.40
2018-05-01T05:11:35.241Z,18.60
2018-05-01T05:14:02.696Z,18.80
2018-05-01T05:16:30.050Z,18.80
2018-05-01T05:18:57.404Z,18.90
2018-05-01T05:21:29.557Z,19.10
2018-05-01T05:23:56.892Z,19.40
2018-05-01T05:26:24.279Z,19.60
2018-05-01T05:28:51.739Z,19.90
2018-05-01T05:31:19.166Z,20.20
2018-05-01T05:33:46.520Z,20.30
2018-05-01T05:36:13.905Z,20.50
2018-05-01T05:38:41.213Z,20.50
2018-05-01T05:41:08.817Z,20.70
2018-05-01T05:43:36.172Z,21.00
2018-05-01T05:46:03.574Z,21.20
2018-05-01T05:48:30.980Z,21.20
2018-05-01T05:50:58.334Z,21.20
2018-05-01T05:53:25.792Z,20.90
2018-05-01T05:55:54.282Z,21.10
2018-05-01T05:58:21.828Z,21.20
2018-05-01T06:00:49.283Z,21.00
2018-05-01T06:03:16.743Z,21.30
2018-05-01T06:05:44.097Z,21.50
2018-05-01T06:08:11.449Z,21.80
2018-05-01T06:10:51.642Z,22.50
2018-05-01T06:13:19.780Z,23.60
2018-05-01T06:15:47.131Z,23.50
2018-05-01T06:18:14.485Z,23.80
2018-05-01T06:20:41.838Z,22.90
2018-05-01T06:23:09.299Z,22.80
2018-05-01T06:25:36.613Z,22.70
2018-05-01T06:28:04.007Z,23.00
2018-05-01T06:30:31.458Z,23.10
2018-05-01T06:32:58.815Z,23.60
2018-05-01T06:35:26.273Z,23.00
2018-05-01T06:37:53.628Z,23.90
2018-05-01T06:40:20.982Z,24.00
2018-05-01T06:42:48.494Z,24.10
2018-05-01T06:45:15.891Z,24.30
2018-05-01T06:47:43.249Z,24.00
2018-05-01T06:50:10.706Z,24.50
2018-05-01T06:52:38.061Z,25.10
2018-05-01T06:55:05.410Z,25.30
2018-05-01T06:57:32.767Z,25.80
2018-05-01T07:00:00.224Z,26.00
2018-05-01T07:02:27.646Z,26.30
2018-05-01T07:04:55.036Z,25.70
2018-05-01T07:07:22.492Z,25.80
2018-05-01T07:09:49.954Z,25.60
2018-05-01T07:12:18.797Z,25.10
2018-05-01T07:14:46.191Z,25.10
2018-05-01T07:17:13.505Z,25.40
2018-05-01T07:19:40.899Z,25.70
2018-05-01T07:22:08.256Z,25.80
2018-05-01T07:24:35.607Z,26.00
2018-05-01T07:27:03.164Z,26.50
2018-05-01T07:29:30.621Z,27.00
2018-05-01T07:31:58.078Z,27.30
2018-05-01T07:34:25.431Z,28.00
2018-05-01T07:36:52.784Z,28.20
2018-05-01T07:39:20.143Z,28.50
2018-05-01T07:41:47.582Z,28.50
2018-05-01T07:44:14.949Z,27.70
2018-05-01T07:46:42.323Z,26.80
2018-05-01T07:49:09.724Z,26.50
2018-05-01T07:51:37.831Z,26.30
2018-05-01T07:54:05.289Z,26.30
2018-05-01T07:56:32.609Z,27.30
2018-05-01T07:58:59.995Z,27.70
2018-05-01T08:01:27.350Z,28.40
2018-05-01T08:03:54.635Z,28.00
2018-05-01T08:06:22.845Z,27.70
2018-05-01T08:08:50.378Z,27.60
2018-05-01T08:11:17.598Z,27.20
2018-05-01T08:13:45.043Z,27.80
2018-05-01T08:16:12.400Z,27.70
2018-05-01T08:18:39.839Z,27.90
2018-05-01T08:21:07.308Z,27.80
2018-05-01T08:23:34.666Z,26.90
2018-05-01T08:26:02.123Z,27.20
2018-05-01T08:28:29.482Z,27.40
2018-05-01T08:30:57.752Z,27.20
2018-05-01T08:33:25.208Z,27.20
2018-05-01T08:35:52.766Z,27.00
2018-05-01T08:38:20.125Z,27.60
2018-05-01T08:40:47.475Z,27.50
2018-05-01T08:43:14.934Z,27.80
2018-05-01T08:45:42.283Z,27.60
2018-05-01T08:48:09.641Z,28.10
2018-05-01T08:50:37.198Z,28.30
2018-05-01T08:53:04.555Z,28.50
2018-05-01T08:55:31.905Z,27.80
2018-05-01T08:57:59.260Z,28.50
2018-05-01T09:00:26.617Z,28.60
2018-05-01T09:02:53.972Z,28.20
2018-05-01T09:05:21.322Z,27.50
2018-05-01T09:07:48.679Z,27.00
2018-05-01T09:10:16.136Z,26.40
2018-05-01T09:12:43.488Z,26.10
2018-05-01T09:15:10.842Z,25.70
2018-05-01T09:17:39.212Z,26.00
2018-05-01T09:20:06.678Z,26.80
2018-05-01T09:22:34.029Z,26.90
2018-05-01T09:25:01.384Z,27.10
2018-05-01T09:27:28.740Z,27.80
2018-05-01T09:29:56.162Z,27.60
2018-05-01T09:32:23.548Z,27.70
2018-05-01T09:34:51.008Z,27.80
2018-05-01T09:37:18.461Z,28.30
2018-05-01T09:39:45.918Z,28.50
2018-05-01T09:42:13.272Z,28.70
2018-05-01T09:44:40.629Z,28.90
2018-05-01T09:47:07.985Z,29.00
2018-05-01T09:49:35.341Z,28.80
2018-05-01T09:52:02.795Z,28.90
2018-05-01T09:54:30.663Z,29.20
2018-05-01T09:56:58.627Z,29.40
2018-05-01T09:59:26.594Z,29.40
2018-05-01T10:01:54.461Z,29.20
2018-05-01T10:04:22.534Z,28.80
2018-05-01T10:06:51.937Z,28.50
2018-05-01T10:09:19.801Z,28.50
2018-05-01T10:11:47.668Z,28.80
2018-05-01T10:14:15.634Z,28.70
2018-05-01T10:16:43.504Z,29.10
2018-05-01T10:19:12.191Z,29.70
2018-05-01T10:21:40.056Z,29.70
2018-05-01T10:24:08.021Z,29.50
2018-05-01T10:26:35.890Z,29.70
2018-05-01T10:29:03.855Z,29.20
2018-05-01T10:31:31.721Z,29.20
2018-05-01T10:33:59.592Z,29.40
2018-05-01T10:36:27.557Z,29.30
2018-05-01T10:38:55.521Z,29.50
2018-05-01T10:41:23.392Z,29.00
2018-05-01T10:43:51.256Z,29.10
2018-05-01T10:46:19.228Z,29.20
2018-05-01T10:48:47.199Z,29.40
2018-05-01T10:51:15.061Z,28.70
2018-05-01T10:53:43.033Z,28.80
2018-05-01T10:56:11.715Z,28.70
2018-05-01T10:58:39.686Z,28.60
2018-05-01T11:01:07.552Z,29.00
2018-05-01T11:03:35.517Z,28.90
2018-05-01T11:06:03.485Z,29.40
2018-05-01T11:08:31.457Z,29.20
2018-05-01T11:10:59.245Z,29.10
2018-05-01T11:13:27.963Z,29.30
2018-05-01T11:15:55.875Z,29.30
2018-05-01T11:18:25.279Z,29.20
2018-05-01T11:20:54.674Z,29.20
2018-05-01T11:23:22.543Z,29.50
2018-05-01T11:25:50.515Z,29.70
2018-05-01T11:28:19.912Z,29.20
2018-05-01T11:30:47.782Z,29.20
2018-05-01T11:33:15.747Z,29.00
2018-05-01T11:35:43.615Z,29.00
2018-05-01T11:38:11.649Z,29.10
2018-05-01T11:40:39.479Z,28.70
2018-05-01T11:43:08.135Z,28.80
2018-05-01T11:45:36.004Z,28.80
2018-05-01T11:48:03.822Z,29.50
2018-05-01T11:50:31.735Z,29.00
2018-05-01T11:52:59.605Z,29.10
2018-05-01T11:55:27.669Z,29.30
2018-05-01T11:57:55.537Z,29.50
2018-05-01T12:00:23.567Z,29.10
2018-05-01T12:02:51.476Z,29.20
2018-05-01T12:05:19.339Z,28.60
2018-05-01T12:07:47.209Z,27.10
2018-05-01T12:10:15.077Z,27.20
2018-05-01T12:12:42.936Z,27.50
2018-05-01T12:15:10.909Z,28.00
2018-05-01T12:17:38.771Z,28.50
2018-05-01T12:20:06.639Z,28.70
2018-05-01T12:22:34.511Z,27.60
2018-05-01T12:25:02.377Z,28.00
2018-05-01T12:27:30.237Z,27.70
2018-05-01T12:29:58.256Z,27.60
2018-05-01T12:32:26.173Z,27.90
2018-05-01T12:34:54.047Z,28.30
2018-05-01T12:37:23.447Z,28.20
2018-05-01T12:39:51.312Z,28.20
2018-05-01T12:42:19.383Z,28.10
2018-05-01T12:44:47.244Z,27.80
2018-05-01T12:47:15.076Z,28.00
2018-05-01T12:49:42.857Z,27.70
2018-05-01T12:52:10.744Z,27.60
2018-05-01T12:54:38.815Z,27.00
2018-05-01T12:57:06.780Z,27.10
2018-05-01T12:59:34.750Z,27.20
2018-05-01T13:02:02.511Z,27.30
2018-05-01T13:04:30.320Z,26.80
2018-05-01T13:06:58.168Z,26.80
2018-05-01T13:09:26.696Z,26.60
2018-05-01T13:11:54.533Z,26.60
2018-05-01T13:14:22.458Z,26.90
2018-05-01T13:16:50.229Z,27.00
2018-05-01T13:19:18.174Z,26.90
2018-05-01T13:21:46.059Z,26.90
2018-05-01T13:24:14.028Z,27.10
2018-05-01T13:26:41.890Z,25.80
2018-05-01T13:29:09.759Z,25.00
2018-05-01T13:31:37.578Z,24.70
2018-05-01T13:34:05.375Z,24.60
2018-05-01T13:36:33.177Z,25.00
2018-05-01T13:39:01.837Z,25.90
2018-05-01T13:41:29.645Z,25.80
2018-05-01T13:43:57.573Z,25.70
2018-05-01T13:46:25.501Z,25.70
2018-05-01T13:48:53.343Z,25.40
2018-05-01T13:51:21.151Z,24.40
2018-05-01T13:53:48.914Z,24.10
2018-05-01T13:56:16.733Z,24.90
2018-05-01T13:58:45.392Z,25.80
2018-05-01T14:01:13.222Z,25.80
2018-05-01T14:03:40.996Z,25.90
2018-05-01T14:06:08.785Z,26.50
2018-05-01T14:08:36.569Z,26.60
2018-05-01T14:11:05.234Z,27.10
2018-05-01T14:13:33.000Z,27.10
2018-05-01T14:16:00.841Z,27.40
2018-05-01T14:18:28.625Z,27.20
2018-05-01T14:20:56.448Z,26.20
2018-05-01T14:23:24.206Z,25.20
2018-05-01T14:25:52.000Z,25.70
2018-05-01T14:28:19.875Z,26.10
2018-05-01T14:30:47.694Z,26.90
2018-05-01T14:33:15.499Z,26.50
2018-05-01T14:35:43.280Z,26.90
2018-05-01T14:38:11.117Z,26.80
2018-05-01T14:40:39.030Z,26.60
2018-05-01T14:43:07.563Z,27.40
2018-05-01T14:45:35.429Z,27.40
2018-05-01T14:48:03.321Z,27.40
2018-05-01T14:50:31.194Z,26.80
2018-05-01T14:52:59.110Z,26.40
2018-05-01T14:55:27.073Z,26.30
2018-05-01T14:57:54.866Z,26.50
2018-05-01T15:00:22.754Z,26.50
2018-05-01T15:03:02.487Z,26.20
2018-05-01T15:05:30.297Z,26.00
2018-05-01T15:07:58.943Z,26.00
2018-05-01T15:10:26.717Z,25.90
2018-05-01T15:12:54.678Z,26.00
2018-05-01T15:15:22.506Z,25.10
2018-05-01T15:17:50.611Z,25.10
2018-05-01T15:20:18.477Z,25.00
2018-05-01T15:22:46.347Z,24.90
2018-05-01T15:25:14.211Z,24.70
2018-05-01T15:27:42.079Z,24.60
2018-05-01T15:30:10.055Z,24.00
2018-05-01T15:32:37.981Z,24.40
2018-05-01T15:35:05.882Z,24.60
2018-05-01T15:37:33.726Z,24.70
2018-05-01T15:40:01.529Z,24.30
2018-05-01T15:42:30.137Z,24.80
2018-05-01T15:44:58.059Z,24.80
2018-05-01T15:47:25.931Z,24.80
2018-05-01T15:49:53.798Z,24.70
2018-05-01T15:52:21.663Z,24.80
2018-05-01T15:54:49.528Z,24.80
2018-05-01T15:57:17.394Z,24.70
2018-05-01T15:59:45.258Z,24.70
2018-05-01T16:02:13.329Z,24.60
2018-05-01T16:04:41.194Z,24.50
2018-05-01T16:07:09.265Z,24.70
2018-05-01T16:09:37.132Z,24.50
2018-05-01T16:12:04.978Z,24.60
2018-05-01T16:14:32.761Z,24.50
2018-05-01T16:17:00.661Z,24.40
2018-05-01T16:19:28.698Z,24.30
2018-05-01T16:21:56.978Z,24.40
2018-05-01T16:24:24.946Z,24.30
2018-05-01T16:26:52.765Z,24.30
2018-05-01T16:29:20.530Z,24.50
2018-05-01T16:31:48.307Z,24.40
2018-05-01T16:34:16.308Z,24.40
2018-05-01T16:36:44.171Z,24.40
2018-05-01T16:39:12.017Z,24.30
2018-05-01T16:41:39.904Z,24.00
2018-05-01T16:44:07.857Z,24.00
2018-05-01T16:46:35.710Z,23.50
2018-05-01T16:49:03.498Z,23.40
2018-05-01T16:51:31.345Z,23.70
2018-05-01T16:53:59.133Z,24.00
2018-05-01T16:56:26.900Z,23.70
2018-05-01T16:58:54.761Z,23.40
2018-05-01T17:01:22.734Z,23.60
2018-05-01T17:03:50.714Z,23.60
2018-05-01T17:06:18.512Z,23.80
2018-05-01T17:08:46.293Z,23.70
2018-05-01T17:11:14.195Z,23.80
2018-05-01T17:13:42.269Z,23.80
2018-05-01T17:16:10.134Z,23.70
2018-05-01T17:18:38.105Z,23.80
2018-05-01T17:21:05.968Z,23.30
2018-05-01T17:23:33.836Z,22.60
2018-05-01T17:26:01.700Z,23.00
2018-05-01T17:28:29.547Z,22.70
2018-05-01T17:30:57.430Z,22.80
2018-05-01T17:33:25.298Z,22.30
2018-05-01T17:35:53.984Z,22.50
2018-05-01T17:38:21.853Z,22.50
2018-05-01T17:40:49.743Z,22.40
2018-05-01T17:43:18.402Z,22.40
2018-05-01T17:45:46.236Z,22.40
2018-05-01T17:48:14.137Z,21.80
2018-05-01T17:50:41.956Z,21.50
2018-05-01T17:53:09.721Z,21.20
2018-05-01T17:55:37.582Z,21.10
2018-05-01T17:58:05.400Z,21.30
2018-05-01T18:00:33.256Z,21.30
2018-05-01T18:03:01.094Z,21.80
2018-05-01T18:05:29.060Z,21.90
2018-05-01T18:07:56.961Z,21.50
2018-05-01T18:10:24.827Z,21.60
2018-05-01T18:12:52.658Z,22.00
2018-05-01T18:15:20.557Z,22.10
2018-05-01T18:17:48.530Z,22.10
2018-05-01T18:20:16.395Z,22.30
2018-05-01T18:22:44.365Z,22.40
2018-05-01T18:25:12.338Z,22.60
2018-05-01T18:27:40.297Z,22.30
2018-05-01T18:30:08.164Z,22.50
2018-05-01T18:32:36.032Z,22.20
2018-05-01T18:35:04.001Z,21.80
2018-05-01T18:37:31.863Z,21.60
2018-05-01T18:39:59.730Z,21.50
2018-05-01T18:42:27.600Z,21.20
2018-05-01T18:44:55.408Z,21.00
2018-05-01T18:47:23.240Z,20.80
2018-05-01T18:49:52.015Z,20.70
2018-05-01T18:52:19.879Z,20.70
2018-05-01T18:54:47.751Z,20.50
2018-05-01T18:57:15.717Z,20.30
2018-05-01T18:59:43.686Z,20.20
2018-05-01T19:02:11.552Z,20.30
2018-05-01T19:04:39.621Z,20.60
2018-05-01T19:07:07.690Z,20.60
2018-05-01T19:09:35.556Z,20.50
2018-05-01T19:12:03.485Z,20.40
2018-05-01T19:14:31.502Z,20.30
2018-05-01T19:16:59.361Z,20.20
2018-05-01T19:19:27.431Z,20.20
2018-05-01T19:21:55.400Z,20.30
2018-05-01T19:24:23.222Z,20.20
2018-05-01T19:26:51.131Z,20.20
2018-05-01T19:29:18.998Z,20.40
2018-05-01T19:31:46.868Z,20.40
2018-05-01T19:34:14.738Z,20.30
2018-05-01T19:36:42.699Z,20.10
2018-05-01T19:39:11.486Z,20.30
2018-05-01T19:41:39.457Z,20.40
2018-05-01T19:44:07.427Z,20.20
2018-05-01T19:46:36.054Z,19.90
2018-05-01T19:49:04.693Z,19.90
2018-05-01T19:51:33.665Z,20.00
2018-05-01T19:54:02.642Z,20.00
2018-05-01T19:56:31.896Z,19.90
2018-05-01T19:59:01.479Z,19.80
2018-05-01T20:01:30.524Z,19.80
2018-05-01T20:03:59.160Z,19.70
2018-05-01T20:06:28.014Z,19.70
2018-05-01T20:08:57.065Z,19.80
2018-05-01T20:11:26.705Z,19.70
2018-05-01T20:13:55.610Z,19.70
2018-05-01T20:16:23.766Z,19.60
2018-05-01T20:18:51.788Z,19.70
2018-05-01T20:21:19.958Z,19.80
2018-05-01T20:23:48.603Z,19.70
2018-05-01T20:26:17.265Z,19.80
2018-05-01T20:28:46.489Z,19.70
2018-05-01T20:31:15.106Z,19.70
2018-05-01T20:33:43.079Z,19.70
2018-05-01T20:36:10.944Z,19.90
2018-05-01T20:38:38.911Z,19.60
2018-05-01T20:41:06.776Z,19.60
2018-05-01T20:43:34.748Z,19.50
2018-05-01T20:46:03.126Z,19.80
2018-05-01T20:48:31.094Z,19.90
2018-05-01T20:50:58.925Z,19.90
2018-05-01T20:53:26.829Z,19.80
2018-05-01T20:55:54.654Z,19.80
2018-05-01T20:58:22.558Z,19.80
2018-05-01T21:00:50.627Z,19.90
2018-05-01T21:03:18.493Z,19.90
2018-05-01T21:05:46.462Z,19.90
2018-05-01T21:08:14.330Z,19.90
2018-05-01T21:10:42.193Z,20.00
2018-05-01T21:13:10.064Z,19.80
2018-05-01T21:15:37.928Z,19.80
2018-05-01T21:18:05.795Z,19.90
2018-05-01T21:20:33.659Z,20.10
2018-05-01T21:23:01.525Z,20.10
2018-05-01T21:25:29.402Z,20.20
2018-05-01T21:27:57.435Z,20.20
2018-05-01T21:30:25.331Z,20.20
2018-05-01T21:32:53.195Z,20.10
2018-05-01T21:35:21.058Z,20.10
2018-05-01T21:37:49.032Z,20.00
2018-05-01T21:40:16.998Z,20.10
2018-05-01T21:42:44.817Z,20.00
2018-05-01T21:45:12.734Z,20.00
2018-05-01T21:47:40.558Z,20.10
2018-05-01T21:50:08.466Z,20.20
2018-05-01T21:52:36.331Z,20.40
2018-05-01T21:55:04.299Z,20.70
2018-05-01T21:57:32.272Z,20.90
2018-05-01T22:00:00.236Z,21.00
2018-05-01T22:02:28.205Z,21.00
2018-05-01T22:04:56.277Z,21.00
2018-05-01T22:07:24.246Z,21.00
2018-05-01T22:09:52.220Z,21.00
2018-05-01T22:12:20.083Z,20.80
2018-05-01T22:14:48.044Z,21.00
2018-05-01T22:17:15.913Z,21.10
2018-05-01T22:19:43.780Z,20.90
2018-05-01T22:22:11.813Z,20.80
2018-05-01T22:24:39.713Z,20.70
2018-05-01T22:27:07.585Z,20.60
2018-05-01T22:29:35.605Z,20.60
2018-05-01T22:32:03.457Z,20.60
2018-05-01T22:34:31.280Z,20.50
2018-05-01T22:36:59.113Z,20.50
2018-05-01T22:39:27.017Z,20.50
2018-05-01T22:41:54.982Z,20.50
2018-05-01T22:44:22.847Z,20.60
2018-05-01T22:46:50.717Z,20.60
2018-05-01T22:49:18.579Z,20.50
2018-05-01T22:51:46.445Z,20.60
2018-05-01T22:54:14.316Z,20.60
2018-05-01T22:56:42.285Z,20.70
2018-05-01T22:59:10.150Z,20.70
2018-05-01T23:01:38.120Z,20.80
2018-05-01T23:04:06.084Z,20.60
2018-05-01T23:06:34.154Z,20.50
2018-05-01T23:09:02.027Z,20.50
2018-05-01T23:11:29.892Z,20.60
2018-05-01T23:13:57.753Z,20.60
2018-05-01T23:16:25.621Z,20.70
2018-05-01T23:18:53.486Z,20.70
2018-05-01T23:21:21.353Z,20.80
2018-05-01T23:23:49.423Z,20.90
2018-05-01T23:26:17.287Z,20.90
2018-05-01T23:28:45.261Z,20.90
2018-05-01T23:31:13.225Z,20.80
2018-05-01T23:33:41.092Z,20.80
2018-05-01T23:36:09.165Z,20.80
2018-05-01T23:38:37.032Z,20.80
2018-05-01T23:41:04.899Z,20.80
2018-05-01T23:43:32.764Z,20.80
2018-05-01T23:48:34.742Z,20.80
2018-05-01T23:51:02.609Z,20.80
2018-05-01T23:53:30.472Z,20.80
2018-05-01T23:55:58.444Z,20.80
2018-05-01T23:58:26.308Z,20.70
